createdAt,value
2019-03-12T00:00:06.314Z,4.40
2019-03-12T00:02:38.905Z,4.50
2019-03-12T00:05:09.839Z,4.50
2019-03-12T00:07:41.173Z,4.60
2019-03-12T00:10:12.085Z,4.60
2019-03-12T00:12:42.998Z,4.60
2019-03-12T00:15:15.337Z,4.60
2019-03-12T00:17:46.566Z,4.60
2019-03-12T00:20:18.054Z,4.60
2019-03-12T00:22:49.107Z,4.60
2019-03-12T00:25:20.315Z,4.70
2019-03-12T00:27:51.326Z,4.70
2019-03-12T00:30:22.325Z,4.70
2019-03-12T00:32:55.589Z,4.70
2019-03-12T00:35:25.877Z,4.70
2019-03-12T00:37:56.868Z,4.70
2019-03-12T00:40:27.787Z,4.70
2019-03-12T00:42:58.842Z,4.70
2019-03-12T00:45:29.833Z,4.70
2019-03-12T00:48:01.167Z,4.70
2019-03-12T00:50:32.060Z,4.70
2019-03-12T00:53:03.053Z,4.70
2019-03-12T00:55:33.978Z,4.70
2019-03-12T00:58:04.949Z,4.70
2019-03-12T01:00:35.863Z,4.70
2019-03-12T01:03:07.195Z,4.70
2019-03-12T01:05:38.502Z,4.70
2019-03-12T01:08:09.823Z,4.70
2019-03-12T01:10:41.473Z,4.70
2019-03-12T01:13:17.052Z,4.70
2019-03-12T01:15:48.426Z,4.60
2019-03-12T01:18:19.343Z,4.70
2019-03-12T01:20:50.649Z,4.70
2019-03-12T01:23:21.575Z,4.60
2019-03-12T01:25:52.557Z,4.60
2019-03-12T01:28:23.764Z,4.60
2019-03-12T01:30:55.021Z,4.70
2019-03-12T01:33:25.954Z,4.60
2019-03-12T01:35:56.891Z,4.60
2019-03-12T01:38:28.843Z,4.70
2019-03-12T01:40:59.783Z,4.70
2019-03-12T01:43:31.130Z,4.70
2019-03-12T01:46:02.407Z,4.70
2019-03-12T01:48:33.326Z,4.70
2019-03-12T01:51:05.310Z,4.80
2019-03-12T01:53:36.946Z,4.80
2019-03-12T01:56:08.275Z,4.80
2019-03-12T01:58:39.508Z,4.80
2019-03-12T02:01:10.774Z,4.80
2019-03-12T02:03:42.014Z,4.80
2019-03-12T02:06:12.917Z,4.80
2019-03-12T02:08:44.504Z,4.80
2019-03-12T02:11:16.698Z,4.80
2019-03-12T02:13:48.024Z,4.80
2019-03-12T02:16:19.269Z,4.80
2019-03-12T02:18:50.175Z,4.80
2019-03-12T02:21:21.858Z,4.90
2019-03-12T02:23:52.764Z,4.90
2019-03-12T02:26:24.030Z,4.90
2019-03-12T02:28:54.969Z,4.90
2019-03-12T02:31:25.971Z,4.90
2019-03-12T02:33:57.317Z,4.90
2019-03-12T02:36:28.245Z,4.90
2019-03-12T02:38:59.482Z,4.90
2019-03-12T02:41:30.465Z,4.90
2019-03-12T02:44:01.398Z,4.90
2019-03-12T02:46:32.299Z,4.90
2019-03-12T02:49:03.876Z,4.90
2019-03-12T02:51:34.919Z,4.90
2019-03-12T02:54:06.206Z,4.90
2019-03-12T02:56:37.330Z,5.00
2019-03-12T02:59:08.345Z,4.90
2019-03-12T03:01:39.332Z,4.90
2019-03-12T03:04:10.322Z,4.90
2019-03-12T03:06:49.597Z,5.00
2019-03-12T03:09:22.259Z,4.90
2019-03-12T03:11:53.518Z,5.00
2019-03-12T03:14:38.451Z,5.00
2019-03-12T03:17:13.609Z,5.00
2019-03-12T03:19:44.531Z,5.00
2019-03-12T03:22:15.602Z,5.00
2019-03-12T03:24:47.172Z,5.00
2019-03-12T03:27:18.482Z,5.00
2019-03-12T03:29:49.493Z,5.00
2019-03-12T03:32:20.565Z,5.00
2019-03-12T03:34:51.557Z,5.10
2019-03-12T03:37:22.628Z,5.00
2019-03-12T03:39:53.547Z,5.10
2019-03-12T03:42:24.514Z,5.10
2019-03-12T03:44:55.763Z,5.10
2019-03-12T03:47:26.745Z,5.10
2019-03-12T03:49:58.126Z,5.10
2019-03-12T03:52:29.375Z,5.10
2019-03-12T03:55:00.621Z,5.10
2019-03-12T03:57:31.790Z,5.10
2019-03-12T04:00:02.815Z,5.10
2019-03-12T04:02:35.399Z,5.10
2019-03-12T04:05:07.193Z,5.10
2019-03-12T04:07:38.111Z,5.10
2019-03-12T04:10:09.713Z,5.10
2019-03-12T04:12:41.100Z,5.10
2019-03-12T04:15:12.608Z,5.20
2019-03-12T04:17:43.999Z,5.20
2019-03-12T04:20:15.918Z,5.20
2019-03-12T04:22:46.833Z,5.20
2019-03-12T04:25:17.851Z,5.20
2019-03-12T04:27:48.809Z,5.20
2019-03-12T04:30:20.228Z,5.20
2019-03-12T04:32:51.574Z,5.20
2019-03-12T04:35:23.047Z,5.20
2019-03-12T04:37:54.026Z,5.20
2019-03-12T04:40:25.396Z,5.30
2019-03-12T04:42:57.444Z,5.40
2019-03-12T04:45:40.533Z,5.40
2019-03-12T04:48:11.634Z,5.40
2019-03-12T04:50:42.880Z,5.40
2019-03-12T04:53:14.330Z,5.50
2019-03-12T04:55:45.770Z,5.50
2019-03-12T04:58:17.136Z,5.50
2019-03-12T05:00:48.754Z,5.40
2019-03-12T05:03:19.802Z,5.50
2019-03-12T05:05:51.565Z,5.50
2019-03-12T05:08:22.645Z,5.50
2019-03-12T05:10:53.996Z,5.50
2019-03-12T05:13:25.108Z,5.50
2019-03-12T05:15:56.148Z,5.60
2019-03-12T05:18:27.562Z,5.60
2019-03-12T05:20:58.965Z,5.60
2019-03-12T05:23:29.902Z,5.60
2019-03-12T05:26:00.941Z,5.60
2019-03-12T05:28:32.582Z,5.70
2019-03-12T05:31:03.574Z,5.60
2019-03-12T05:33:34.951Z,5.70
2019-03-12T05:36:05.993Z,5.70
2019-03-12T05:38:37.817Z,5.70
2019-03-12T05:41:12.135Z,5.60
2019-03-12T05:43:41.706Z,5.70
2019-03-12T05:46:12.745Z,5.70
2019-03-12T05:48:43.709Z,5.80
2019-03-12T05:51:14.765Z,5.80
2019-03-12T05:53:50.477Z,5.80
2019-03-12T05:56:21.485Z,5.80
2019-03-12T05:58:52.553Z,5.80
2019-03-12T06:01:23.973Z,5.80
2019-03-12T06:03:54.974Z,5.80
2019-03-12T06:06:26.020Z,5.90
2019-03-12T06:08:57.059Z,5.90
2019-03-12T06:11:28.154Z,5.90
2019-03-12T06:13:59.222Z,5.90
2019-03-12T06:16:30.214Z,6.00
2019-03-12T06:19:01.167Z,5.90
2019-03-12T06:21:33.668Z,6.00
2019-03-12T06:24:05.070Z,5.90
2019-03-12T06:26:37.411Z,5.90
2019-03-12T06:29:08.862Z,6.00
2019-03-12T06:31:53.043Z,5.90
2019-03-12T06:34:50.244Z,5.90
2019-03-12T06:37:39.997Z,5.90
2019-03-12T06:40:31.774Z,5.90
2019-03-12T06:43:27.622Z,6.00
2019-03-12T06:46:16.395Z,5.90
2019-03-12T06:49:05.144Z,6.00
2019-03-12T06:51:58.393Z,6.00
2019-03-12T06:54:47.110Z,6.00
2019-03-12T06:57:36.170Z,6.00
2019-03-12T07:00:30.796Z,6.10
2019-03-12T07:03:32.853Z,6.00
2019-03-12T07:06:19.665Z,6.00
2019-03-12T07:09:09.654Z,6.10
2019-03-12T07:11:53.914Z,6.10
2019-03-12T07:14:41.990Z,6.10
2019-03-12T07:17:30.846Z,6.20
2019-03-12T07:20:17.330Z,6.20
2019-03-12T07:23:04.821Z,6.20
2019-03-12T07:25:40.878Z,6.20
2019-03-12T07:28:19.782Z,6.30
2019-03-12T07:31:04.124Z,6.30
2019-03-12T07:33:56.989Z,6.30
2019-03-12T07:36:46.176Z,6.30
2019-03-12T07:39:32.931Z,6.40
2019-03-12T07:42:41.311Z,6.40
2019-03-12T07:45:21.653Z,6.50
2019-03-12T07:48:00.899Z,6.40
2019-03-12T07:51:06.097Z,6.50
2019-03-12T07:53:58.643Z,6.60
2019-03-12T07:56:50.496Z,6.70
2019-03-12T07:59:55.963Z,6.70
2019-03-12T08:03:01.095Z,6.70
2019-03-12T08:05:47.926Z,6.70
2019-03-12T08:08:27.993Z,6.80
2019-03-12T08:11:17.007Z,6.80
2019-03-12T08:14:07.577Z,6.80
2019-03-12T08:17:05.117Z,6.80
2019-03-12T08:20:01.293Z,6.80
2019-03-12T08:22:58.051Z,6.90
2019-03-12T08:25:53.973Z,7.00
2019-03-12T08:28:37.193Z,7.10
2019-03-12T08:31:19.016Z,7.10
2019-03-12T08:34:13.789Z,7.20
2019-03-12T08:37:19.004Z,7.20
2019-03-12T08:40:18.258Z,7.20
2019-03-12T08:43:00.731Z,7.30
2019-03-12T08:45:49.864Z,7.30
2019-03-12T08:48:30.609Z,7.30
2019-03-12T08:51:07.888Z,7.40
2019-03-12T08:53:56.818Z,7.40
2019-03-12T08:56:41.903Z,7.40
2019-03-12T08:59:32.604Z,7.50
2019-03-12T09:02:21.390Z,7.60
2019-03-12T09:05:02.108Z,7.70
2019-03-12T09:08:01.803Z,7.80
2019-03-12T09:10:39.810Z,7.80
2019-03-12T09:13:42.360Z,7.90
2019-03-12T09:16:22.722Z,8.10
2019-03-12T09:19:23.206Z,8.30
2019-03-12T09:22:01.176Z,8.20
2019-03-12T09:24:48.912Z,8.10
2019-03-12T09:27:30.940Z,8.10
2019-03-12T09:30:14.579Z,8.20
2019-03-12T09:32:52.925Z,8.30
2019-03-12T09:35:41.979Z,8.40
2019-03-12T09:38:27.735Z,8.50
2019-03-12T09:41:26.566Z,8.50
2019-03-12T09:44:26.874Z,8.60
2019-03-12T09:47:09.626Z,8.70
2019-03-12T09:50:03.857Z,8.60
2019-03-12T09:52:50.189Z,8.60
2019-03-12T09:55:38.943Z,8.50
2019-03-12T09:58:31.445Z,8.50
2019-03-12T10:01:30.507Z,8.60
2019-03-12T10:04:10.233Z,8.60
2019-03-12T10:06:59.614Z,8.60
2019-03-12T10:09:52.825Z,8.60
2019-03-12T10:12:39.997Z,8.80
2019-03-12T10:15:29.159Z,8.80
2019-03-12T10:18:22.449Z,8.80
2019-03-12T10:20:59.317Z,9.00
2019-03-12T10:23:42.974Z,9.00
2019-03-12T10:26:35.808Z,8.80
2019-03-12T10:29:35.009Z,8.80
2019-03-12T10:32:14.270Z,8.70
2019-03-12T10:34:59.739Z,8.90
2019-03-12T10:37:48.399Z,9.00
2019-03-12T10:40:37.347Z,9.10
2019-03-12T10:43:27.478Z,9.00
2019-03-12T10:46:26.776Z,9.10
2019-03-12T10:48:57.708Z,9.10
2019-03-12T10:51:29.106Z,9.20
2019-03-12T10:54:00.629Z,9.10
2019-03-12T10:56:33.073Z,9.10
2019-03-12T10:59:04.570Z,9.10
2019-03-12T11:01:35.870Z,9.10
2019-03-12T11:04:06.865Z,9.20
2019-03-12T11:06:39.640Z,9.20
2019-03-12T11:09:10.666Z,9.20
2019-03-12T11:11:42.040Z,9.20
2019-03-12T11:14:13.468Z,9.20
2019-03-12T11:16:45.074Z,9.30
2019-03-12T11:19:16.062Z,9.30
2019-03-12T11:21:47.161Z,9.10
2019-03-12T11:24:18.481Z,9.30
2019-03-12T11:26:49.921Z,9.20
2019-03-12T11:29:20.985Z,9.20
2019-03-12T11:31:51.950Z,9.20
2019-03-12T11:34:23.416Z,9.30
2019-03-12T11:36:54.551Z,9.40
2019-03-12T11:39:25.971Z,9.50
2019-03-12T11:41:57.052Z,9.50
2019-03-12T11:44:28.237Z,9.50
2019-03-12T11:46:59.339Z,9.60
2019-03-12T11:49:30.475Z,10.10
2019-03-12T11:52:01.479Z,9.80
2019-03-12T11:54:32.711Z,9.70
2019-03-12T11:57:03.910Z,9.90
2019-03-12T11:59:34.956Z,10.50
2019-03-12T12:02:06.845Z,10.70
2019-03-12T12:04:38.085Z,10.60
2019-03-12T12:07:09.085Z,10.60
2019-03-12T12:09:40.179Z,10.30
2019-03-12T12:12:11.225Z,10.00
2019-03-12T12:14:42.469Z,10.00
2019-03-12T12:17:13.531Z,10.00
2019-03-12T12:19:44.528Z,9.90
2019-03-12T12:22:15.539Z,9.70
2019-03-12T12:24:46.499Z,9.50
2019-03-12T12:27:17.622Z,9.70
2019-03-12T12:29:48.631Z,9.60
2019-03-12T12:32:19.633Z,9.60
2019-03-12T12:34:50.741Z,9.60
2019-03-12T12:37:23.494Z,9.70
2019-03-12T12:39:54.513Z,9.70
2019-03-12T12:42:25.625Z,9.70
2019-03-12T12:44:56.697Z,9.70
2019-03-12T12:47:29.140Z,9.80
2019-03-12T12:50:00.122Z,9.90
2019-03-12T12:52:31.738Z,9.90
2019-03-12T12:55:02.714Z,9.90
2019-03-12T12:57:33.864Z,10.00
2019-03-12T13:00:06.152Z,10.00
2019-03-12T13:02:39.135Z,9.80
2019-03-12T13:05:11.168Z,9.80
2019-03-12T13:07:42.257Z,9.70
2019-03-12T13:10:20.228Z,9.70
2019-03-12T13:12:51.334Z,9.70
2019-03-12T13:15:22.426Z,9.60
2019-03-12T13:17:53.396Z,9.70
2019-03-12T13:20:24.672Z,9.70
2019-03-12T13:22:55.786Z,9.70
2019-03-12T13:25:26.823Z,9.70
2019-03-12T13:27:57.862Z,9.60
2019-03-12T13:30:29.386Z,9.60
2019-03-12T13:33:00.460Z,9.70
2019-03-12T13:35:31.801Z,9.80
2019-03-12T13:38:02.913Z,9.70
2019-03-12T13:40:34.011Z,9.70
2019-03-12T13:43:05.126Z,9.70
2019-03-12T13:45:36.347Z,9.70
2019-03-12T13:48:09.373Z,9.70
2019-03-12T13:50:40.493Z,9.70
2019-03-12T13:53:11.595Z,9.60
2019-03-12T13:55:42.964Z,9.60
2019-03-12T13:58:14.096Z,9.60
2019-03-12T14:00:46.246Z,9.60
2019-03-12T14:03:17.307Z,9.60
2019-03-12T14:05:48.446Z,9.60
2019-03-12T14:08:19.550Z,9.70
2019-03-12T14:10:50.641Z,9.80
2019-03-12T14:13:23.457Z,9.90
2019-03-12T14:15:54.524Z,9.90
2019-03-12T14:18:25.601Z,10.00
2019-03-12T14:21:08.802Z,10.10
2019-03-12T14:24:00.623Z,10.10
2019-03-12T14:26:32.005Z,10.20
2019-03-12T14:29:03.505Z,10.20
2019-03-12T14:31:34.703Z,10.30
2019-03-12T14:34:06.046Z,10.30
2019-03-12T14:36:37.154Z,10.40
2019-03-12T14:39:09.054Z,10.40
2019-03-12T14:41:41.717Z,10.30
2019-03-12T14:44:12.812Z,10.30
2019-03-12T14:46:46.685Z,10.30
2019-03-12T14:49:17.731Z,10.30
2019-03-12T14:52:24.789Z,10.40
2019-03-12T14:54:55.793Z,10.40
2019-03-12T14:57:28.379Z,10.50
2019-03-12T14:59:59.347Z,10.50
2019-03-12T15:02:30.378Z,10.50
2019-03-12T15:05:02.500Z,10.50
2019-03-12T15:07:33.665Z,10.50
2019-03-12T15:10:05.452Z,10.70
2019-03-12T15:12:36.517Z,10.90
2019-03-12T15:15:08.145Z,10.70
2019-03-12T15:17:39.327Z,10.60
2019-03-12T15:20:11.220Z,10.60
2019-03-12T15:22:42.185Z,10.60
2019-03-12T15:25:13.707Z,10.60
2019-03-12T15:27:44.778Z,10.50
2019-03-12T15:30:18.136Z,10.50
2019-03-12T15:32:49.564Z,10.40
2019-03-12T15:35:20.698Z,10.50
2019-03-12T15:37:51.812Z,10.50
2019-03-12T15:40:22.893Z,10.40
2019-03-12T15:42:53.926Z,10.40
2019-03-12T15:45:25.255Z,10.30
2019-03-12T15:47:56.380Z,10.30
2019-03-12T15:50:27.352Z,10.30
2019-03-12T15:52:58.692Z,10.30
2019-03-12T15:55:29.741Z,10.20
2019-03-12T15:58:01.114Z,10.30
2019-03-12T16:00:32.835Z,10.30
2019-03-12T16:03:04.490Z,10.30
2019-03-12T16:05:35.892Z,10.30
2019-03-12T16:08:06.947Z,10.20
2019-03-12T16:10:38.109Z,10.20
2019-03-12T16:13:09.167Z,10.20
2019-03-12T16:15:40.259Z,10.20
2019-03-12T16:18:14.302Z,10.10
2019-03-12T16:20:43.979Z,10.10
2019-03-12T16:23:15.005Z,10.10
2019-03-12T16:25:46.121Z,10.10
2019-03-12T16:28:17.512Z,10.10
2019-03-12T16:30:48.889Z,10.10
2019-03-12T16:33:20.591Z,10.00
2019-03-12T16:35:51.736Z,10.00
2019-03-12T16:38:23.236Z,10.10
2019-03-12T16:40:54.651Z,10.00
2019-03-12T16:43:26.065Z,10.00
2019-03-12T16:45:57.420Z,10.00
2019-03-12T16:48:28.514Z,10.00
2019-03-12T16:51:00.052Z,10.10
2019-03-12T16:53:31.188Z,10.00
2019-03-12T16:56:02.219Z,10.00
2019-03-12T16:58:33.689Z,10.00
2019-03-12T17:01:04.931Z,10.10
2019-03-12T17:03:36.006Z,10.00
2019-03-12T17:06:07.070Z,10.00
2019-03-12T17:08:38.455Z,10.00
2019-03-12T17:11:09.471Z,10.10
2019-03-12T17:13:40.514Z,10.10
2019-03-12T17:16:11.488Z,10.10
2019-03-12T17:18:42.589Z,10.20
2019-03-12T17:21:13.651Z,10.10
2019-03-12T17:23:45.059Z,10.20
2019-03-12T17:26:16.109Z,10.20
2019-03-12T17:28:47.301Z,10.10
2019-03-12T17:31:19.703Z,10.20
2019-03-12T17:33:50.784Z,10.20
2019-03-12T17:36:22.284Z,10.20
2019-03-12T17:38:53.688Z,10.20
2019-03-12T17:41:24.648Z,10.20
2019-03-12T17:43:58.075Z,10.20
2019-03-12T17:46:29.172Z,10.20
2019-03-12T17:49:00.117Z,10.10
2019-03-12T17:51:31.558Z,10.00
2019-03-12T17:54:02.669Z,9.80
2019-03-12T17:56:33.724Z,9.70
2019-03-12T17:59:04.775Z,9.60
2019-03-12T18:01:35.865Z,9.70
2019-03-12T18:04:06.904Z,9.60
2019-03-12T18:06:38.333Z,9.40
2019-03-12T18:09:09.689Z,9.20
2019-03-12T18:11:41.543Z,9.00
2019-03-12T18:14:12.464Z,9.00
2019-03-12T18:16:44.242Z,8.80
2019-03-12T18:19:15.751Z,8.70
2019-03-12T18:21:47.237Z,8.50
2019-03-12T18:24:18.578Z,8.60
2019-03-12T18:26:49.676Z,8.50
2019-03-12T18:29:21.108Z,8.40
2019-03-12T18:31:52.214Z,8.40
2019-03-12T18:34:23.558Z,8.40
2019-03-12T18:36:54.589Z,8.40
2019-03-12T18:39:26.071Z,8.40
2019-03-12T18:41:57.001Z,8.30
2019-03-12T18:44:28.101Z,8.30
2019-03-12T18:46:59.566Z,8.30
2019-03-12T18:49:30.620Z,8.40
2019-03-12T18:52:01.739Z,8.30
2019-03-12T18:54:32.836Z,8.40
2019-03-12T18:57:03.897Z,8.40
2019-03-12T18:59:34.983Z,8.40
2019-03-12T19:02:06.475Z,8.30
2019-03-12T19:04:37.913Z,8.40
2019-03-12T19:07:09.046Z,8.30
2019-03-12T19:09:40.167Z,8.20
2019-03-12T19:12:11.201Z,8.20
2019-03-12T19:14:42.861Z,8.10
2019-03-12T19:17:15.063Z,8.00
2019-03-12T19:19:46.178Z,8.00
2019-03-12T19:22:17.211Z,8.00
2019-03-12T19:24:48.240Z,7.90
2019-03-12T19:27:20.109Z,7.50
2019-03-12T19:29:51.076Z,7.30
2019-03-12T19:32:35.322Z,7.00
2019-03-12T19:35:09.847Z,6.80
2019-03-12T19:37:41.330Z,6.40
2019-03-12T19:40:14.885Z,6.20
2019-03-12T19:42:46.308Z,6.20
2019-03-12T19:45:18.402Z,6.20
2019-03-12T19:47:49.696Z,6.20
2019-03-12T19:50:21.266Z,6.20
2019-03-12T19:52:52.383Z,5.90
2019-03-12T19:55:26.669Z,5.90
2019-03-12T19:57:57.760Z,5.90
2019-03-12T20:00:30.080Z,5.90
2019-03-12T20:03:10.887Z,5.80
2019-03-12T20:05:34.108Z,5.80
2019-03-12T20:08:06.243Z,5.80
2019-03-12T20:11:13.250Z,5.60
2019-03-12T20:14:27.092Z,5.60
2019-03-12T20:17:44.050Z,5.60
2019-03-12T20:21:10.504Z,5.70
2019-03-12T20:24:24.627Z,5.60
2019-03-12T20:27:45.268Z,5.60
2019-03-12T20:30:47.700Z,5.60
2019-03-12T20:33:54.548Z,5.70
2019-03-12T20:37:08.512Z,5.70
2019-03-12T20:40:35.817Z,5.70
2019-03-12T20:44:18.614Z,5.70
2019-03-12T20:47:36.235Z,5.70
2019-03-12T20:50:56.264Z,5.70
2019-03-12T20:54:07.714Z,5.80
2019-03-12T20:57:33.892Z,5.80
2019-03-12T21:00:41.214Z,5.80
2019-03-12T21:03:47.882Z,5.80
2019-03-12T21:07:04.719Z,5.80
2019-03-12T21:10:25.182Z,5.80
2019-03-12T21:13:32.211Z,5.80
2019-03-12T21:16:51.568Z,5.80
2019-03-12T21:20:08.533Z,5.80
2019-03-12T21:23:26.266Z,5.90
2019-03-12T21:26:45.145Z,5.90
2019-03-12T21:29:50.300Z,5.90
2019-03-12T21:32:21.600Z,5.80
2019-03-12T21:34:53.101Z,5.80
2019-03-12T21:37:24.208Z,5.80
2019-03-12T21:39:56.376Z,5.70
2019-03-12T21:42:27.620Z,5.70
2019-03-12T21:44:59.069Z,5.70
2019-03-12T21:47:30.527Z,5.70
2019-03-12T21:50:01.807Z,5.70
2019-03-12T21:52:33.475Z,5.70
2019-03-12T21:55:05.533Z,5.70
2019-03-12T21:57:36.640Z,5.70
2019-03-12T22:00:11.583Z,5.70
2019-03-12T22:02:44.292Z,5.70
2019-03-12T22:05:15.276Z,5.70
2019-03-12T22:07:46.304Z,5.80
2019-03-12T22:10:17.351Z,5.70
2019-03-12T22:12:48.807Z,5.70
2019-03-12T22:18:01.591Z,5.70
2019-03-12T22:20:32.677Z,5.70
2019-03-12T22:23:08.645Z,5.70
2019-03-12T22:25:40.079Z,5.70
2019-03-12T22:28:11.202Z,5.70
2019-03-12T22:30:42.364Z,5.60
2019-03-12T22:33:13.406Z,5.60
2019-03-12T22:35:44.871Z,5.60
2019-03-12T22:38:15.918Z,5.60
2019-03-12T22:40:46.946Z,5.60
2019-03-12T22:43:18.048Z,5.60
2019-03-12T22:45:49.534Z,5.60
2019-03-12T22:48:20.650Z,5.50
2019-03-12T22:50:51.669Z,5.50
2019-03-12T22:53:22.776Z,5.50
2019-03-12T22:55:54.083Z,5.40
2019-03-12T22:58:25.127Z,5.40
2019-03-12T23:01:14.084Z,5.40
2019-03-12T23:04:03.507Z,5.40
2019-03-12T23:06:52.817Z,5.40
2019-03-12T23:09:41.575Z,5.30
2019-03-12T23:12:16.968Z,5.30
2019-03-12T23:14:49.332Z,5.30
2019-03-12T23:17:22.274Z,5.30
2019-03-12T23:19:53.304Z,5.30
2019-03-12T23:22:24.702Z,5.20
2019-03-12T23:24:56.115Z,5.20
2019-03-12T23:27:27.120Z,5.20
2019-03-12T23:29:58.188Z,5.20
2019-03-12T23:32:30.289Z,5.20
2019-03-12T23:35:01.415Z,5.10
2019-03-12T23:37:32.440Z,5.20
2019-03-12T23:40:03.893Z,5.30
2019-03-12T23:42:35.441Z,5.30
2019-03-12T23:45:07.463Z,5.20
2019-03-12T23:47:39.051Z,5.20
2019-03-12T23:50:11.343Z,5.20
2019-03-12T23:52:42.476Z,5.20
2019-03-12T23:55:13.997Z,5.20
2019-03-12T23:57:45.085Z,5.20
